Time,TemperatureF,DewpointF,PressureIn,WindDirection,WindDirectionDegrees,WindSpeedMPH,WindSpeedGustMPH,Humidity,HourlyPrecipIn,Conditions,Clouds,dailyrainin,SoftwareType,DateUTC
2013-02-09 00:19:00,8.6,-4.3,29.68,NNE,30,0.0,0.0,55,0.00,,,0.00,Weather View 32 v70,2013-02-09 05:19:00,
2013-02-09 00:40:00,7.5,-5.3,29.68,NNE,30,0.0,0.0,55,0.00,,,0.00,Weather View 32 v70,2013-02-09 05:40:00,
2013-02-09 00:46:00,7.5,-5.3,29.68,NNE,30,0.0,0.0,55,0.00,,,0.00,Weather View 32 v70,2013-02-09 05:46:00,
2013-02-09 01:06:00,5.2,-7.5,29.68,NNE,30,0.0,0.0,55,0.00,,,0.00,Weather View 32 v70,2013-02-09 06:06:00,
2013-02-09 01:20:00,4.6,-8.0,29.71,NNE,30,0.0,0.0,55,0.00,,,0.00,Weather View 32 v70,2013-02-09 06:20:00,
2013-02-09 01:40:00,3.6,-9.0,29.71,NNE,30,0.0,0.0,55,0.00,,,0.00,Weather View 32 v70,2013-02-09 06:40:00,
2013-02-09 01:46:00,3.6,-9.0,29.71,NNE,30,0.0,0.0,55,0.00,,,0.00,Weather View 32 v70,2013-02-09 06:46:00,
2013-02-09 02:00:00,2.8,-9.7,29.71,NNE,30,0.0,0.0,55,0.00,,,0.00,Weather View 32 v70,2013-02-09 07:00:00,
2013-02-09 02:19:00,4.6,-8.0,29.71,NNE,30,0.0,0.0,55,0.00,,,0.00,Weather View 32 v70,2013-02-09 07:19:00,
2013-02-09 02:40:00,7.2,-5.6,29.71,NNE,30,0.0,0.0,55,0.00,,,0.00,Weather View 32 v70,2013-02-09 07:40:00,
2013-02-09 02:47:00,7.2,-5.6,29.71,NNE,30,0.0,0.0,55,0.00,,,0.00,Weather View 32 v70,2013-02-09 07:47:00,
2013-02-09 03:00:00,4.5,-8.1,29.71,NNE,30,0.0,0.0,55,0.00,,,0.00,Weather View 32 v70,2013-02-09 08:00:00,
2013-02-09 03:19:00,3.7,-8.8,29.71,NNE,30,0.0,0.0,55,0.00,,,0.00,Weather View 32 v70,2013-02-09 08:19:00,
2013-02-09 03:40:00,2.5,-10.0,29.71,NNE,30,0.0,0.0,55,0.00,,,0.00,Weather View 32 v70,2013-02-09 08:40:00,
2013-02-09 03:48:00,2.5,-10.0,29.71,NNE,30,0.0,0.0,55,0.00,,,0.00,Weather View 32 v70,2013-02-09 08:48:00,
2013-02-09 04:00:00,0.7,-11.7,29.71,NNE,30,0.0,0.0,55,0.00,,,0.00,Weather View 32 v70,2013-02-09 09:00:00,
2013-02-09 04:20:00,0.9,-11.5,29.71,NNE,30,0.0,0.0,55,0.00,,,0.00,Weather View 32 v70,2013-02-09 09:20:00,
2013-02-09 04:39:00,-0.2,-12.5,29.71,NNE,30,0.0,0.0,55,0.00,,,0.00,Weather View 32 v70,2013-02-09 09:39:00,
2013-02-09 04:49:00,-0.2,-12.5,29.71,NNE,30,0.0,0.0,55,0.00,,,0.00,Weather View 32 v70,2013-02-09 09:49:00,
2013-02-09 04:59:00,-0.9,-13.2,29.71,NNE,30,0.0,0.0,55,0.00,,,0.00,Weather View 32 v70,2013-02-09 09:59:00,
2013-02-09 05:20:00,-0.6,-12.9,29.71,NNE,30,0.0,0.0,55,0.00,,,0.00,Weather View 32 v70,2013-02-09 10:20:00,
2013-02-09 05:39:00,0.3,-12.0,29.71,NNE,30,0.0,0.0,55,0.00,,,0.00,Weather View 32 v70,2013-02-09 10:39:00,
2013-02-09 05:40:00,0.3,-12.0,29.71,NNE,30,0.0,0.0,55,0.00,,,0.00,Weather View 32 v70,2013-02-09 10:40:00,
2013-02-09 05:59:00,-2.2,-14.4,29.71,NNE,30,0.0,0.0,55,0.00,,,0.00,Weather View 32 v70,2013-02-09 10:59:00,
2013-02-09 06:20:00,-3.5,-15.6,29.71,NNE,30,0.0,0.0,55,0.00,,,0.00,Weather View 32 v70,2013-02-09 11:20:00,
2013-02-09 06:40:00,-4.4,-16.4,29.71,NNE,30,0.0,0.0,55,0.00,,,0.00,Weather View 32 v70,2013-02-09 11:40:00,
2013-02-09 06:59:00,-3.5,-15.6,29.74,NNE,30,0.0,0.0,55,0.00,,,0.00,Weather View 32 v70,2013-02-09 11:59:00,
2013-02-09 07:19:00,-4.0,-16.1,29.74,NNE,30,0.0,0.0,55,0.00,,,0.00,Weather View 32 v70,2013-02-09 12:19:00,
2013-02-09 07:40:00,-3.8,-15.9,29.74,NNE,30,0.0,0.0,55,0.00,,,0.00,Weather View 32 v70,2013-02-09 12:40:00,
2013-02-09 08:00:00,-4.4,-16.4,29.74,NNE,30,0.0,0.0,55,0.00,,,0.00,Weather View 32 v70,2013-02-09 13:00:00,
2013-02-09 08:20:00,-3.3,-15.4,29.71,NNE,30,0.0,0.0,55,0.00,,,0.00,Weather View 32 v70,2013-02-09 13:20:00,
2013-02-09 08:39:00,-1.1,-13.4,29.74,NNE,30,0.0,0.0,55,0.00,,,0.00,Weather View 32 v70,2013-02-09 13:39:00,
2013-02-09 08:40:00,-1.1,-13.4,29.74,NNE,30,0.0,0.0,55,0.00,,,0.00,Weather View 32 v70,2013-02-09 13:40:00,
2013-02-09 08:59:00,1.9,-10.5,29.74,NNE,30,0.0,0.0,55,0.00,,,0.00,Weather View 32 v70,2013-02-09 13:59:00,
2013-02-09 09:20:00,3.2,-9.3,29.71,NNE,30,0.0,0.0,55,0.00,,,0.00,Weather View 32 v70,2013-02-09 14:20:00,
2013-02-09 09:39:00,6.6,-6.1,29.74,NNE,30,0.0,0.0,55,0.00,,,0.00,Weather View 32 v70,2013-02-09 14:39:00,
2013-02-09 09:40:00,6.6,-6.1,29.74,NNE,30,0.0,0.0,55,0.00,,,0.00,Weather View 32 v70,2013-02-09 14:40:00,
2013-02-09 10:00:00,8.6,-4.3,29.74,NNE,30,0.0,0.0,55,0.00,,,0.00,Weather View 32 v70,2013-02-09 15:00:00,
2013-02-09 10:20:00,11.8,-1.2,29.74,NNE,30,0.0,0.0,55,0.00,,,0.00,Weather View 32 v70,2013-02-09 15:20:00,
2013-02-09 10:40:00,14.4,8.5,29.74,ESE,105,0.0,3.0,77,0.00,,,0.00,Weather View 32 v70,2013-02-09 15:40:00,
2013-02-09 11:00:00,17.2,9.8,29.71,South,181,0.0,3.0,72,0.00,,,0.00,Weather View 32 v70,2013-02-09 16:00:00,
2013-02-09 11:20:00,19.4,11.2,29.71,South,191,0.0,3.0,70,0.00,,,0.00,Weather View 32 v70,2013-02-09 16:20:00,
2013-02-09 11:40:00,21.0,11.1,29.74,ESE,104,3.0,4.0,65,0.00,,,0.00,Weather View 32 v70,2013-02-09 16:40:00,
2013-02-09 12:00:00,21.9,10.5,29.71,SSW,202,3.0,4.0,61,0.00,,,0.00,Weather View 32 v70,2013-02-09 17:00:00,
2013-02-09 12:20:00,23.9,9.7,29.71,SSW,197,3.0,4.0,54,0.00,,,0.00,Weather View 32 v70,2013-02-09 17:20:00,
2013-02-09 12:40:00,26.2,8.7,29.71,SSW,207,4.0,5.0,47,0.00,,,0.00,Weather View 32 v70,2013-02-09 17:40:00,
2013-02-09 13:00:00,32.4,10.7,29.71,East,98,3.0,5.0,40,0.00,,,0.00,Weather View 32 v70,2013-02-09 18:00:00,
2013-02-09 13:20:00,33.8,9.0,29.68,SW,214,4.0,5.0,35,0.00,,,0.00,Weather View 32 v70,2013-02-09 18:20:00,
2013-02-09 13:39:00,32.5,10.3,29.68,ESE,113,3.0,5.0,39,0.00,,,0.00,Weather View 32 v70,2013-02-09 18:39:00,
2013-02-09 13:40:00,32.5,10.3,29.68,ESE,113,3.0,5.0,39,0.00,,,0.00,Weather View 32 v70,2013-02-09 18:40:00,
2013-02-09 14:00:00,32.7,11.0,29.68,East,80,0.0,5.0,40,0.00,,,0.00,Weather View 32 v70,2013-02-09 19:00:00,
2013-02-09 14:20:00,34.2,10.6,29.65,East,81,0.0,5.0,37,0.00,,,0.00,Weather View 32 v70,2013-02-09 19:20:00,
2013-02-09 14:40:00,32.7,8.1,29.62,SSW,192,2.0,5.0,35,0.00,,,0.00,Weather View 32 v70,2013-02-09 19:40:00,
2013-02-09 15:00:00,31.5,8.2,29.65,SSW,194,4.0,5.0,37,0.00,,,0.00,Weather View 32 v70,2013-02-09 20:00:00,
2013-02-09 15:20:00,31.1,7.2,29.62,SSW,193,4.0,6.0,36,0.00,,,0.00,Weather View 32 v70,2013-02-09 20:20:00,
2013-02-09 15:40:00,31.3,6.8,29.62,SSE,151,0.0,6.0,35,0.00,,,0.00,Weather View 32 v70,2013-02-09 20:40:00,
2013-02-09 16:00:00,31.6,7.7,29.62,SSW,195,0.0,6.0,36,0.00,,,0.00,Weather View 32 v70,2013-02-09 21:00:00,
2013-02-09 16:20:00,32.0,7.4,29.62,SSW,194,2.0,6.0,35,0.00,,,0.00,Weather View 32 v70,2013-02-09 21:20:00,
2013-02-09 16:40:00,31.8,6.6,29.62,SSW,193,3.0,8.0,34,0.00,,,0.00,Weather View 32 v70,2013-02-09 21:40:00,
2013-02-09 17:00:00,30.9,6.5,29.62,SW,231,4.0,8.0,35,0.00,,,0.00,Weather View 32 v70,2013-02-09 22:00:00,
2013-02-09 17:20:00,29.1,6.1,29.62,SSW,195,3.0,8.0,37,0.00,,,0.00,Weather View 32 v70,2013-02-09 22:20:00,
2013-02-09 17:40:00,27.9,4.9,29.62,SSW,195,4.0,6.0,37,0.00,,,0.00,Weather View 32 v70,2013-02-09 22:40:00,
2013-02-09 18:00:00,26.8,5.1,29.62,South,191,3.0,6.0,39,0.00,,,0.00,Weather View 32 v70,2013-02-09 23:00:00,
2013-02-09 18:20:00,25.7,5.8,29.62,South,191,2.0,6.0,42,0.00,,,0.00,Weather View 32 v70,2013-02-09 23:20:00,
2013-02-09 18:40:00,24.6,5.3,29.62,South,191,0.0,5.0,43,0.00,,,0.00,Weather View 32 v70,2013-02-09 23:40:00,
2013-02-09 19:00:00,23.2,4.5,29.62,SSW,203,0.0,4.0,44,0.00,,,0.00,Weather View 32 v70,2013-02-10 00:00:00,
2013-02-09 19:20:00,22.3,4.2,29.59,SSW,203,0.0,3.0,45,0.00,,,0.00,Weather View 32 v70,2013-02-10 00:20:00,
2013-02-09 19:40:00,22.3,6.0,29.59,SSW,203,0.0,3.0,49,0.00,,,0.00,Weather View 32 v70,2013-02-10 00:40:00,
2013-02-09 20:00:00,21.6,6.2,29.59,SSW,203,0.0,0.0,51,0.00,,,0.00,Weather View 32 v70,2013-02-10 01:00:00,
2013-02-09 20:20:00,21.0,6.6,29.59,SSW,203,0.0,0.0,53,0.00,,,0.00,Weather View 32 v70,2013-02-10 01:20:00,